Time;durP1;ratioP1;P1;durP2;ratioP2;P2;SDS_P1;SDS_P2;PMS_P1;PMS_P2;Temp;Humidity;BMP_temperature;BMP_pressure;BME280_temperature;BME280_humidity;BME280_pressure;Samples;Min_cycle;Max_cycle;Signal;HPM_P1;HPM_P2
2023/10/12 00:01:25;;;;;;;21.10;8.00;;;;;;;4.16;58.21;100541.14;78276;1295;3070917;-67
2023/10/12 00:03:58;;;;;;;13.10;5.10;;;;;;;4.14;58.04;100537.91;79481;1295;3014266;-73
2023/10/12 00:06:30;;;;;;;14.00;4.40;;;;;;;4.11;57.75;100539.17;78222;1298;3049565;-66
2023/10/12 00:08:57;;;;;;;15.50;5.30;;;;;;;4.15;57.94;100541.35;79391;1295;3013372;-65
2023/10/12 00:11:37;;;;;;;17.70;5.80;;;;;;;4.18;58.14;100538.00;78217;1299;3049471;-63
2023/10/12 00:14:05;;;;;;;21.70;6.80;;;;;;;4.17;58.67;100534.56;78194;1300;3052991;-71
2023/10/12 00:16:31;;;;;;;21.30;6.80;;;;;;;4.09;59.66;100532.95;79561;1298;3013550;-68
2023/10/12 00:18:58;;;;;;;16.90;5.60;;;;;;;4.12;60.12;100521.98;79526;1298;3011558;-70
2023/10/12 00:21:26;;;;;;;15.30;6.00;;;;;;;4.10;60.92;100523.23;78385;1299;3026290;-71
2023/10/12 00:23:54;;;;;;;16.40;5.10;;;;;;;4.08;61.43;100521.02;79493;1295;3013044;-68
2023/10/12 00:26:22;;;;;;;11.30;3.70;;;;;;;4.10;62.10;100517.52;79488;1294;3012997;-71
2023/10/12 00:28:51;;;;;;;15.10;5.20;;;;;;;4.08;62.79;100515.81;78184;1294;3053667;-69
2023/10/12 00:31:19;;;;;;;20.20;7.10;;;;;;;4.03;63.53;100518.48;79362;1298;3013320;-69
2023/10/12 00:33:49;;;;;;;17.60;6.50;;;;;;;3.97;64.01;100519.98;79456;1295;3011928;-69
2023/10/12 00:36:21;;;;;;;7.80;3.60;;;;;;;3.99;65.22;100523.59;78327;1298;3056103;-61
2023/10/12 00:38:49;;;;;;;5.50;2.40;;;;;;;4.09;65.19;100521.35;79452;1295;3011575;-67
2023/10/12 00:41:17;;;;;;;9.40;2.30;;;;;;;4.07;65.68;100520.15;78280;1301;3053402;-65
2023/10/12 00:43:49;;;;;;;3.60;1.90;;;;;;;4.05;66.16;100512.58;79298;1301;3014063;-69
2023/10/12 00:49:13;;;;;;;7.70;3.70;;;;;;;4.00;66.83;100511.59;78731;1299;3069746;-72
2023/10/12 00:51:52;;;;;;;5.20;2.50;;;;;;;4.06;66.49;100505.45;78290;1298;3051507;-64
2023/10/12 00:55:21;;;;;;;8.10;3.30;;;;;;;4.08;66.64;100500.89;78071;1298;3057527;-67
2023/10/12 00:57:23;;;;;;;13.30;4.40;;;;;;;4.01;67.08;100495.29;78229;1298;3049563;-69
2023/10/12 00:59:52;;;;;;;8.70;3.40;;;;;;;3.95;67.62;100492.98;79495;1295;3013937;-70
2023/10/12 01:02:23;;;;;;;11.60;3.90;;;;;;;3.91;67.66;100490.44;79049;1294;3011571;-70
2023/10/12 01:04:53;;;;;;;10.90;3.50;;;;;;;3.93;67.81;100491.27;79489;1295;3011654;-66
2023/10/12 01:07:25;;;;;;;9.30;3.00;;;;;;;3.93;67.79;100493.70;78114;1301;3052396;-68
2023/10/12 01:10:03;;;;;;;11.10;3.60;;;;;;;3.84;68.44;100486.56;76894;1294;3388687;-71
2023/10/12 01:12:33;;;;;;;5.10;2.50;;;;;;;3.83;68.37;100491.08;78222;1295;3054120;-68
2023/10/12 01:15:05;;;;;;;9.00;3.00;;;;;;;3.81;68.65;100489.56;79451;1295;3015006;-69
2023/10/12 01:17:35;;;;;;;8.30;2.80;;;;;;;3.79;68.65;100492.53;78202;1295;3051928;-65
2023/10/12 01:20:11;;;;;;;6.90;2.90;;;;;;;3.88;68.48;100489.27;79492;1300;3013575;-64
2023/10/12 01:22:39;;;;;;;6.30;2.40;;;;;;;3.80;68.68;100486.80;78206;1299;3053120;-71
2023/10/12 01:25:20;;;;;;;6.50;2.80;;;;;;;3.77;68.95;100483.74;79345;1298;3013208;-70
2023/10/12 01:27:48;;;;;;;7.20;3.10;;;;;;;3.76;68.88;100475.25;78151;1296;3051881;-70
2023/10/12 01:30:21;;;;;;;56.60;15.60;;;;;;;3.74;68.77;100477.19;79337;1299;3013238;-71
2023/10/12 01:32:53;;;;;;;81.20;18.50;;;;;;;3.64;68.96;100485.50;78142;1296;3054827;-68
2023/10/12 01:35:26;;;;;;;135.70;29.00;;;;;;;3.66;69.09;100482.35;79390;1294;3012971;-75
2023/10/12 01:38:00;;;;;;;149.60;28.80;;;;;;;3.67;68.93;100476.44;78197;1301;3052387;-72
2023/10/12 01:43:13;;;;;;;138.60;30.60;;;;;;;3.65;68.87;100475.77;78215;1294;3069700;-72
2023/10/12 01:45:43;;;;;;;196.10;40.70;;;;;;;3.67;68.90;100477.47;79495;1298;3013421;-69
2023/10/12 01:48:22;;;;;;;185.20;37.30;;;;;;;3.70;68.83;100468.41;78844;1298;3011881;-66
2023/10/12 01:50:50;;;;;;;164.20;32.00;;;;;;;3.68;68.94;100467.92;78216;1299;3050067;-67
2023/10/12 01:55:46;;;;;;;139.60;25.80;;;;;;;3.74;68.78;100466.61;79384;1298;3011722;-63
2023/10/12 01:58:14;;;;;;;105.50;21.50;;;;;;;3.74;68.87;100464.02;78182;1300;3052366;-74
2023/10/12 02:00:42;;;;;;;120.80;21.30;;;;;;;3.73;69.11;100466.11;79386;1297;3013873;-68
2023/10/12 02:05:49;;;;;;;113.00;21.60;;;;;;;3.66;69.67;100460.86;78259;1299;3049319;-77
2023/10/12 02:08:16;;;;;;;93.50;17.70;;;;;;;3.71;69.72;100461.81;79475;1295;3011516;-63
2023/10/12 02:10:54;;;;;;;105.00;19.20;;;;;;;3.68;70.02;100464.65;78128;1299;3049736;-64
2023/10/12 02:13:23;;;;;;;120.30;23.50;;;;;;;3.67;70.32;100468.82;78277;1300;3052658;-73
2023/10/12 02:15:50;;;;;;;122.40;27.50;;;;;;;3.69;70.04;100467.55;79449;1294;3012825;-66
2023/10/12 02:18:18;;;;;;;111.90;24.90;;;;;;;3.72;70.29;100464.77;79427;1295;3011582;-64
2023/10/12 02:26:35;;;;;;;44.60;12.30;;;;;;;3.68;70.61;100459.09;78188;1299;3053754;-66
2023/10/12 02:31:38;;;;;;;28.60;9.90;;;;;;;3.70;70.71;100454.90;79545;1296;3013045;-68
2023/10/12 02:34:13;;;;;;;23.60;6.50;;;;;;;3.62;71.07;100447.92;78484;1296;3049783;-70
2023/10/12 02:36:59;;;;;;;16.60;5.30;;;;;;;3.63;71.25;100454.16;78783;1300;3013393;-68
2023/10/12 02:39:28;;;;;;;10.90;3.70;;;;;;;3.66;71.11;100456.89;78222;1294;3069526;-70
2023/10/12 02:45:10;;;;;;;27.40;7.80;;;;;;;3.59;71.62;100440.54;78092;1295;3048460;-65
2023/10/12 02:47:42;;;;;;;37.40;13.30;;;;;;;3.57;71.64;100440.73;78395;1295;3053998;-66
2023/10/12 02:52:43;;;;;;;66.00;17.30;;;;;;;3.48;72.09;100442.96;78244;1301;3052945;-71
2023/10/12 02:55:33;;;;;;;33.80;9.50;;;;;;;3.42;72.38;100440.80;79285;1298;3011529;-72
2023/10/12 02:58:07;;;;;;;16.60;5.50;;;;;;;3.95;71.29;100440.77;78213;1301;3068842;-67
2023/10/12 03:03:19;;;;;;;10.40;3.80;;;;;;;4.34;68.91;100438.32;78226;1298;3056530;-74
2023/10/12 03:05:48;;;;;;;5.80;2.50;;;;;;;4.05;69.83;100441.66;78130;1299;3051484;-68
2023/10/12 03:08:16;;;;;;;7.60;2.30;;;;;;;3.95;70.30;100436.98;79457;1296;3012959;-68
2023/10/12 03:11:12;;;;;;;8.80;2.40;;;;;;;3.61;71.55;100434.77;78867;1295;3011805;-70
2023/10/12 03:13:38;;;;;;;7.50;2.20;;;;;;;3.38;72.60;100439.83;78238;1300;3052511;-67
2023/10/12 03:16:13;;;;;;;11.50;2.30;;;;;;;3.23;73.56;100441.60;79451;1298;3013217;-67
2023/10/12 03:18:42;;;;;;;9.00;2.00;;;;;;;3.27;73.37;100437.39;78187;1299;3068982;-69
2023/10/12 03:21:12;;;;;;;8.50;1.70;;;;;;;3.16;73.89;100438.77;79563;1295;3013694;-68
2023/10/12 03:23:42;;;;;;;4.20;1.90;;;;;;;3.09;74.24;100441.98;78239;1299;3049217;-65
2023/10/12 03:26:24;;;;;;;4.40;1.60;;;;;;;3.10;74.24;100444.05;79391;1295;3011756;-61
2023/10/12 03:28:59;;;;;;;9.50;1.70;;;;;;;3.06;74.24;100445.30;78235;1300;3049647;-67
2023/10/12 03:31:34;;;;;;;3.80;1.40;;;;;;;2.91;75.00;100441.19;79367;1295;3011722;-65
2023/10/12 03:34:13;;;;;;;5.50;1.10;;;;;;;2.87;74.96;100439.52;78111;1300;3052152;-70
2023/10/12 03:36:45;;;;;;;3.30;1.20;;;;;;;3.30;73.46;100440.11;78152;1298;3069090;-67
2023/10/12 03:47:31;;;;;;;7.90;2.10;;;;;;;3.18;72.70;100435.45;78262;1294;3054047;-64
2023/10/12 03:52:27;;;;;;;3.90;1.90;;;;;;;2.90;74.05;100431.18;79546;1298;3018401;-68
2023/10/12 03:55:09;;;;;;;2.60;1.70;;;;;;;2.68;75.11;100435.61;78203;1299;3070837;-68
2023/10/12 03:57:59;;;;;;;3.80;1.90;;;;;;;2.66;75.05;100429.23;78276;1301;3051893;-67
2023/10/12 04:00:34;;;;;;;2.90;1.70;;;;;;;2.65;75.22;100427.86;78193;1300;3057317;-67
2023/10/12 04:03:12;;;;;;;3.20;1.90;;;;;;;2.51;75.63;100428.20;79002;1295;3011670;-68
2023/10/12 04:05:50;;;;;;;4.70;2.00;;;;;;;2.47;76.11;100428.77;78189;1300;3049917;-70
2023/10/12 04:08:39;;;;;;;3.60;1.80;;;;;;;2.47;75.86;100426.87;78068;1295;3052895;-68
2023/10/12 04:13:56;;;;;;;3.10;2.10;;;;;;;2.97;74.53;100423.96;78217;1300;3053137;-67
2023/10/12 04:21:40;;;;;;;4.20;2.20;;;;;;;3.23;72.28;100427.23;79388;1298;3011512;-72
2023/10/12 04:29:21;;;;;;;5.00;2.60;;;;;;;3.12;72.50;100428.43;78265;1294;3025854;-67
2023/10/12 04:31:50;;;;;;;4.30;2.60;;;;;;;2.94;73.24;100433.70;78428;1301;3052569;-61
2023/10/12 04:34:24;;;;;;;7.00;2.70;;;;;;;2.88;73.36;100439.33;79575;1298;3013223;-65
2023/10/12 04:37:09;;;;;;;5.20;2.90;;;;;;;2.82;73.42;100443.38;78147;1301;3051839;-69
2023/10/12 04:39:37;;;;;;;6.90;3.30;;;;;;;2.81;73.75;100435.79;78338;1294;3056351;-70
2023/10/12 04:42:11;;;;;;;4.20;2.90;;;;;;;2.75;73.98;100435.70;79558;1294;3019003;-65
2023/10/12 04:44:52;;;;;;;5.90;2.30;;;;;;;2.78;73.64;100433.75;78159;1300;3052921;-70
2023/10/12 04:47:23;;;;;;;5.00;2.60;;;;;;;2.78;73.58;100434.27;78191;1294;3052586;-70
2023/10/12 04:52:24;;;;;;;3.20;2.10;;;;;;;2.76;73.64;100438.80;79153;1295;3013572;-70
2023/10/12 04:57:38;;;;;;;7.00;2.80;;;;;;;2.77;73.37;100434.96;78220;1295;3057459;-65
2023/10/12 05:07:59;;;;;;;5.20;3.00;;;;;;;3.51;71.15;100438.06;79361;1295;3011892;-72
2023/10/12 05:10:31;;;;;;;4.80;3.00;;;;;;;3.97;69.12;100432.08;78230;1300;3053176;-72
2023/10/12 05:13:05;;;;;;;5.90;2.60;;;;;;;4.06;68.13;100435.04;79624;1300;3013120;-67
2023/10/12 05:15:41;;;;;;;5.00;2.70;;;;;;;3.87;68.24;100441.45;78179;1294;3052876;-71
2023/10/12 05:18:10;;;;;;;5.10;2.30;;;;;;;3.67;68.96;100434.33;78169;1300;3056386;-68
2023/10/12 05:20:40;;;;;;;10.70;3.30;;;;;;;3.62;69.27;100437.36;79539;1295;3013692;-69
2023/10/12 05:23:09;;;;;;;6.10;3.20;;;;;;;3.58;69.17;100438.30;78293;1295;3051279;-65
2023/10/12 05:25:50;;;;;;;6.90;3.30;;;;;;;3.61;69.14;100442.05;79572;1295;3012872;-71
2023/10/12 05:28:27;;;;;;;5.90;2.70;;;;;;;3.67;68.91;100437.11;78213;1294;3069248;-69
2023/10/12 05:31:09;;;;;;;5.00;2.60;;;;;;;3.68;68.56;100439.86;78417;1295;3054518;-68
2023/10/12 05:33:38;;;;;;;5.20;2.90;;;;;;;3.65;68.60;100439.39;78431;1299;3057126;-69
2023/10/12 05:36:08;;;;;;;5.80;2.40;;;;;;;3.66;68.26;100440.94;79464;1294;3018572;-68
2023/10/12 05:39:06;;;;;;;10.70;2.70;;;;;;;3.69;67.67;100438.63;78290;1300;3050023;-72
2023/10/12 05:41:36;;;;;;;6.10;2.30;;;;;;;3.77;67.34;100439.88;78394;1295;3052751;-69
2023/10/12 05:44:04;;;;;;;5.70;2.60;;;;;;;3.83;66.66;100444.98;79567;1298;3011870;-70
2023/10/12 05:46:33;;;;;;;4.90;2.40;;;;;;;3.94;65.93;100443.77;79516;1295;3013063;-72
2023/10/12 05:49:02;;;;;;;6.30;2.40;;;;;;;3.94;65.55;100445.84;78262;1295;3056091;-68
2023/10/12 05:51:29;;;;;;;2.20;1.50;;;;;;;3.98;65.30;100441.25;79436;1294;3013695;-66
2023/10/12 05:54:02;;;;;;;3.30;1.70;;;;;;;4.03;65.14;100440.46;79467;1295;3011895;-68
2023/10/12 05:56:30;;;;;;;4.40;2.30;;;;;;;4.09;65.05;100436.55;78357;1295;3051600;-70
2023/10/12 05:58:57;;;;;;;4.50;2.10;;;;;;;4.12;65.24;100427.83;79516;1294;3013051;-67
2023/10/12 06:01:32;;;;;;;4.80;2.40;;;;;;;4.19;65.00;100426.31;79440;1295;3014033;-72
2023/10/12 06:04:05;;;;;;;3.40;1.90;;;;;;;4.23;64.67;100425.02;78240;1301;3056506;-68
2023/10/12 06:06:36;;;;;;;5.00;2.20;;;;;;;4.28;64.56;100422.65;79610;1295;3011795;-68
2023/10/12 06:09:13;;;;;;;5.50;2.40;;;;;;;4.46;64.13;100426.13;78111;1299;3052813;-70
2023/10/12 06:11:41;;;;;;;3.20;1.60;;;;;;;4.53;64.00;100430.14;78297;1300;3048853;-64
2023/10/12 06:14:09;;;;;;;3.20;1.80;;;;;;;4.65;63.78;100430.77;79636;1299;3013393;-68
2023/10/12 06:16:39;;;;;;;3.80;1.90;;;;;;;4.72;63.62;100431.15;79642;1299;3011459;-72
2023/10/12 06:19:18;;;;;;;5.30;2.10;;;;;;;4.80;63.52;100434.63;78491;1294;3051336;-63
2023/10/12 06:21:46;;;;;;;4.50;1.70;;;;;;;4.88;63.58;100431.33;78380;1294;3057849;-68
2023/10/12 06:24:19;;;;;;;4.50;2.30;;;;;;;5.00;63.68;100436.80;79502;1295;3012950;-64
2023/10/12 06:26:48;;;;;;;;;;;;;;;5.22;63.16;100436.30;78252;1298;3050371;-67
2023/10/12 06:29:25;;;;;;;6.40;1.90;;;;;;;5.36;63.09;100434.74;79518;1294;3013993;-62
2023/10/12 06:31:54;;;;;;;4.20;1.60;;;;;;;5.54;62.99;100434.52;78293;1295;3068440;-67
2023/10/12 06:34:23;;;;;;;4.10;1.80;;;;;;;5.68;62.76;100427.37;79561;1295;3014336;-66
2023/10/12 06:36:57;;;;;;;3.80;2.30;;;;;;;5.84;62.57;100427.67;78920;1295;3011795;-72
2023/10/12 06:44:28;;;;;;;3.90;1.60;;;;;;;6.35;61.53;100418.88;79430;1298;3013397;-69
2023/10/12 06:47:24;;;;;;;3.00;1.80;;;;;;;6.57;61.14;100420.52;78185;1298;3051689;-68
2023/10/12 06:50:00;;;;;;;3.00;1.60;;;;;;;6.80;60.39;100421.26;78260;1300;3069239;-66
2023/10/12 06:52:28;;;;;;;3.00;1.50;;;;;;;7.01;60.42;100424.09;78210;1299;3051479;-65
2023/10/12 06:54:59;;;;;;;3.50;1.70;;;;;;;7.21;60.18;100423.12;79719;1295;3016028;-65
2023/10/12 06:59:59;;;;;;;2.70;1.50;;;;;;;7.51;58.98;100430.56;79457;1294;3013469;-65
2023/10/12 07:02:27;;;;;;;5.80;1.30;;;;;;;7.56;58.31;100429.85;78265;1299;3053284;-69
2023/10/12 07:04:58;;;;;;;3.60;1.10;;;;;;;7.61;58.24;100424.98;79520;1295;3012951;-63
2023/10/12 07:07:28;;;;;;;2.80;1.30;;;;;;;7.76;57.85;100424.84;78147;1301;3056505;-69
2023/10/12 07:10:13;;;;;;;3.00;1.70;;;;;;;7.93;57.55;100422.35;79528;1295;3013296;-69
2023/10/12 07:12:49;;;;;;;3.70;1.20;;;;;;;8.09;57.22;100420.39;78212;1295;3054691;-69
2023/10/12 07:15:22;;;;;;;4.80;1.50;;;;;;;8.24;57.32;100415.84;78215;1299;3049700;-68
2023/10/12 07:17:49;;;;;;;8.10;1.80;;;;;;;8.43;56.88;100422.52;79556;1295;3011625;-65
2023/10/12 07:23:34;;;;;;;1.40;0.90;;;;;;;8.51;55.27;100423.82;78526;1295;3069000;-68
2023/10/12 07:25:49;;;;;;;3.00;1.40;;;;;;;8.76;55.67;100411.02;78268;1295;3054127;-64
2023/10/12 07:28:32;;;;;;;6.10;1.10;;;;;;;8.93;54.85;100413.30;79514;1295;3012775;-70
2023/10/12 07:34:23;;;;;;;12.40;1.50;;;;;;;9.03;54.16;100407.17;78174;1295;3050040;-70
2023/10/12 07:39:19;;;;;;;6.10;1.30;;;;;;;9.21;53.64;100413.29;79410;1295;3012733;-69
2023/10/12 07:41:54;;;;;;;1.50;0.70;;;;;;;9.12;52.94;100408.55;78089;1299;3051969;-69
2023/10/12 07:44:23;;;;;;;1.40;0.80;;;;;;;9.11;53.07;100407.59;78950;1298;3012784;-67
2023/10/12 07:46:50;;;;;;;3.00;0.80;;;;;;;9.17;52.73;100406.95;79660;1295;3014238;-70
2023/10/12 07:57:35;;;;;;;1.70;0.80;;;;;;;9.46;51.54;100402.66;79564;1294;3011624;-65
2023/10/12 08:13:14;;;;;;;4.80;1.10;;;;;;;9.89;50.53;100384.94;78163;1299;3050849;-66
2023/10/12 08:15:49;;;;;;;3.10;1.10;;;;;;;9.97;50.64;100385.48;78858;1299;3011519;-70
2023/10/12 08:21:31;;;;;;;5.40;1.50;;;;;;;10.11;50.15;100381.35;78394;1303;3070482;-69
2023/10/12 08:26:49;;;;;;;2.50;1.10;;;;;;;10.51;50.03;100365.42;78439;1299;3056907;-66
2023/10/12 08:29:21;;;;;;;4.70;0.90;;;;;;;10.40;49.16;100359.77;79521;1295;3013574;-68
2023/10/12 08:39:49;;;;;;;8.30;1.50;;;;;;;10.54;49.95;100351.96;78158;1295;3069399;-66
2023/10/12 08:45:08;;;;;;;2.60;1.00;;;;;;;10.69;49.22;100341.50;78239;1299;3056661;-64
2023/10/12 08:50:47;;;;;;;2.00;1.20;;;;;;;10.79;48.83;100342.55;79541;1301;3013235;-67
2023/10/12 08:53:03;;;;;;;1.70;1.10;;;;;;;10.73;49.24;100347.05;78222;1295;3050894;-72
2023/10/12 08:55:31;;;;;;;3.80;1.30;;;;;;;10.76;48.04;100339.94;79494;1301;3013487;-68
2023/10/12 08:58:18;;;;;;;1.90;0.90;;;;;;;10.82;48.58;100337.33;78233;1298;3052997;-68
2023/10/12 09:03:37;;;;;;;;;;;;;;;11.04;48.04;100324.52;78376;1311;3052581;-69
2023/10/12 09:06:19;;;;;;;7.20;1.60;;;;;;;11.05;48.68;100317.52;78179;1299;3056369;-65
2023/10/12 09:08:48;;;;;;;2.90;1.20;;;;;;;11.29;48.26;100311.92;78147;1299;3049272;-61
2023/10/12 09:11:16;;;;;;;1.80;1.10;;;;;;;11.33;47.21;100307.51;79471;1295;3013383;-72
2023/10/12 09:13:45;;;;;;;3.70;1.00;;;;;;;11.47;46.78;100297.51;79501;1300;3012983;-67
2023/10/12 09:16:14;;;;;;;2.90;0.90;;;;;;;11.53;46.94;100297.54;78420;1301;3051635;-70
2023/10/12 09:18:44;;;;;;;6.40;1.00;;;;;;;11.72;46.64;100292.53;79427;1299;3012896;-70
2023/10/12 09:26:40;;;;;;;5.80;1.10;;;;;;;12.05;42.97;100277.70;78238;1295;3055860;-66
2023/10/12 09:36:55;;;;;;;3.30;1.10;;;;;;;12.30;42.08;100254.20;79351;1295;3011652;-68
2023/10/12 09:39:27;;;;;;;3.90;1.30;;;;;;;12.47;41.31;100238.86;78264;1300;3057043;-69
2023/10/12 09:41:55;;;;;;;4.60;1.50;;;;;;;12.38;41.19;100237.23;79457;1295;3011446;-62
2023/10/12 09:44:26;;;;;;;5.40;1.20;;;;;;;12.38;40.97;100231.27;78246;1298;3053409;-68
2023/10/12 09:46:56;;;;;;;5.10;1.30;;;;;;;12.41;40.86;100222.31;79517;1298;3011751;-67
2023/10/12 09:49:27;;;;;;;8.60;1.40;;;;;;;12.36;41.01;100224.35;78190;1301;3053142;-66
2023/10/12 09:51:55;;;;;;;3.70;1.10;;;;;;;12.44;40.94;100211.63;79770;1299;3013512;-65
2023/10/12 09:54:28;;;;;;;6.30;1.30;;;;;;;12.60;41.14;100202.59;78445;1299;3025562;-68
2023/10/12 09:56:59;;;;;;;4.80;1.70;;;;;;;12.69;41.43;100198.74;79311;1295;3011653;-67
2023/10/12 09:59:30;;;;;;;3.80;1.40;;;;;;;12.85;41.52;100193.29;78278;1301;3055684;-63
2023/10/12 10:02:05;;;;;;;5.60;1.40;;;;;;;12.87;41.89;100190.38;79308;1295;3011612;-63
2023/10/12 10:04:34;;;;;;;7.90;1.60;;;;;;;12.99;42.81;100185.80;78096;1298;3053376;-67
2023/10/12 10:07:15;;;;;;;7.00;2.30;;;;;;;12.98;42.46;100191.48;79571;1295;3012926;-68
2023/10/12 10:09:53;;;;;;;4.90;2.30;;;;;;;12.94;43.79;100187.45;78362;1301;3052271;-62
2023/10/12 10:12:22;;;;;;;4.20;1.50;;;;;;;13.24;43.20;100169.19;78107;1299;3053312;-67
2023/10/12 10:14:59;;;;;;;4.50;1.60;;;;;;;13.30;43.13;100166.15;79531;1298;3012888;-64
2023/10/12 10:17:46;;;;;;;9.40;2.90;;;;;;;13.57;43.13;100161.02;78186;1300;3057256;-68
2023/10/12 10:22:58;;;;;;;4.40;1.70;;;;;;;13.62;43.19;100150.52;78254;1295;3053837;-69
2023/10/12 10:25:33;;;;;;;5.90;1.70;;;;;;;13.43;43.70;100150.79;79492;1300;3011573;-69
2023/10/12 10:28:07;;;;;;;4.20;1.60;;;;;;;13.52;43.47;100137.42;78367;1299;3053000;-65
2023/10/12 10:30:41;;;;;;;10.10;2.30;;;;;;;13.55;43.98;100129.66;79577;1298;3013234;-67
2023/10/12 10:33:13;;;;;;;3.60;1.50;;;;;;;13.49;44.48;100132.80;78278;1296;3069653;-67
2023/10/12 10:36:17;;;;;;;9.40;2.40;;;;;;;13.49;45.13;100116.48;79414;1300;3011628;-68
2023/10/12 10:41:22;;;;;;;5.80;1.60;;;;;;;13.81;45.00;100100.56;79361;1295;3013497;-66
2023/10/12 10:43:53;;;;;;;2.90;1.50;;;;;;;13.84;45.01;100097.39;78347;1295;3053124;-71
2023/10/12 10:46:26;;;;;;;6.00;1.50;;;;;;;13.90;44.94;100101.71;79598;1301;3011957;-70
2023/10/12 10:48:54;;;;;;;10.70;1.50;;;;;;;14.01;45.33;100102.98;78328;1295;3053794;-67
2023/10/12 10:51:32;;;;;;;5.70;1.60;;;;;;;14.03;45.28;100107.21;79404;1295;3013427;-66
2023/10/12 10:54:00;;;;;;;9.10;1.70;;;;;;;13.97;45.56;100102.70;78310;1298;3052147;-73
2023/10/12 10:56:35;;;;;;;5.00;1.60;;;;;;;14.02;45.03;100098.69;79429;1295;3013407;-70
2023/10/12 10:59:05;;;;;;;4.10;1.80;;;;;;;14.09;44.72;100083.44;78130;1298;3055591;-73
2023/10/12 11:01:32;;;;;;;4.80;1.10;;;;;;;14.14;44.58;100073.96;79800;1301;3011780;-65
2023/10/12 11:04:01;;;;;;;4.60;1.80;;;;;;;14.12;45.05;100067.55;79123;1301;3011567;-66
2023/10/12 11:06:28;;;;;;;3.70;1.50;;;;;;;14.14;44.83;100075.52;79667;1298;3018538;-67
2023/10/12 11:09:17;;;;;;;4.70;1.20;;;;;;;14.23;44.84;100069.84;79465;1295;3011768;-65
2023/10/12 11:11:48;;;;;;;6.60;1.40;;;;;;;14.25;45.15;100063.00;78408;1295;3056925;-64
2023/10/12 11:14:17;;;;;;;5.20;1.50;;;;;;;14.40;45.11;100069.25;79420;1295;3011546;-69
2023/10/12 11:16:48;;;;;;;4.00;1.60;;;;;;;14.55;45.08;100067.00;78188;1299;3052074;-67
2023/10/12 11:19:19;;;;;;;8.60;1.40;;;;;;;14.46;45.37;100069.17;79436;1298;3012895;-62
2023/10/12 11:21:51;;;;;;;4.10;1.40;;;;;;;14.58;45.06;100061.48;78198;1297;3054249;-68
2023/10/12 11:24:19;;;;;;;4.00;1.40;;;;;;;14.63;45.11;100052.18;79418;1299;3013127;-63
2023/10/12 11:26:57;;;;;;;4.40;1.20;;;;;;;14.65;45.25;100051.39;78167;1301;3068532;-65
2023/10/12 11:29:25;;;;;;;2.40;1.00;;;;;;;14.78;45.22;100041.84;78170;1295;3051493;-65
2023/10/12 11:32:08;;;;;;;7.50;1.30;;;;;;;14.88;44.61;100039.89;79376;1301;3013593;-68
2023/10/12 11:34:46;;;;;;;2.30;1.10;;;;;;;15.07;44.68;100033.48;78341;1300;3052968;-64
2023/10/12 11:37:14;;;;;;;2.20;1.20;;;;;;;15.07;44.76;100031.70;78349;1298;3049891;-68
2023/10/12 11:39:44;;;;;;;9.80;1.40;;;;;;;15.04;44.82;100037.56;79594;1301;3013022;-65
2023/10/12 11:42:13;;;;;;;7.50;1.90;;;;;;;15.03;44.83;100043.30;79038;1299;3011645;-66
2023/10/12 11:44:45;;;;;;;3.50;1.40;;;;;;;15.11;44.96;100034.46;79483;1301;3013502;-63
2023/10/12 11:47:23;;;;;;;5.50;1.20;;;;;;;15.12;44.74;100029.23;78235;1295;3057212;-64
2023/10/12 11:49:55;;;;;;;4.40;1.10;;;;;;;15.30;44.58;100017.23;78248;1301;3051311;-67
2023/10/12 11:52:34;;;;;;;5.20;1.30;;;;;;;15.37;44.67;100021.15;79617;1298;3011630;-67
2023/10/12 11:55:06;;;;;;;5.20;1.20;;;;;;;15.45;44.52;100012.98;78148;1300;3050600;-70
2023/10/12 11:57:35;;;;;;;4.00;1.10;;;;;;;15.45;44.63;100010.13;79471;1295;3013181;-67
2023/10/12 12:00:14;;;;;;;3.90;1.50;;;;;;;15.59;44.24;100009.83;78322;1299;3051802;-67
2023/10/12 12:02:42;;;;;;;6.00;1.70;;;;;;;15.62;44.16;100011.40;78230;1300;3068712;-66
2023/10/12 12:05:11;;;;;;;7.40;1.80;;;;;;;15.63;44.48;100007.02;79481;1295;3013608;-70
2023/10/12 12:07:40;;;;;;;5.70;1.40;;;;;;;15.69;44.25;100009.09;79054;1295;3013106;-61
2023/10/12 12:10:07;;;;;;;4.30;1.20;;;;;;;15.78;44.18;99989.41;79598;1295;3012674;-65
2023/10/12 12:12:38;;;;;;;2.60;1.10;;;;;;;15.86;44.16;99983.20;79766;1300;3013571;-70
2023/10/12 12:15:07;;;;;;;11.10;2.40;;;;;;;15.99;43.96;99974.09;78153;1300;3052137;-68
2023/10/12 12:17:35;;;;;;;5.40;1.70;;;;;;;16.17;43.78;99972.18;79676;1298;3013427;-66
2023/10/12 12:20:07;;;;;;;6.30;1.60;;;;;;;16.32;43.92;99969.86;79344;1295;3013809;-70
2023/10/12 12:22:42;;;;;;;5.00;1.80;;;;;;;16.16;43.96;99969.30;78279;1295;3056392;-62
2023/10/12 12:25:21;;;;;;;4.90;1.70;;;;;;;16.12;44.07;99959.82;79804;1295;3011647;-69
2023/10/12 12:27:49;;;;;;;6.50;2.00;;;;;;;16.11;43.90;99969.49;78197;1299;3049344;-63
2023/10/12 12:33:23;;;;;;;18.50;4.40;;;;;;;16.11;44.24;99962.95;77717;1307;3053163;-66
2023/10/12 12:35:59;;;;;;;12.20;3.30;;;;;;;16.21;44.32;99947.14;79049;1306;3012934;-61
2023/10/12 12:40:55;;;;;;;7.50;3.20;;;;;;;16.44;43.73;99955.83;79375;1295;3013498;-62
2023/10/12 12:43:21;;;;;;;5.80;2.10;;;;;;;16.35;44.09;99956.52;79356;1297;3011488;-63
2023/10/12 12:45:49;;;;;;;4.70;2.10;;;;;;;16.36;44.34;99948.30;78280;1295;3049924;-66
2023/10/12 12:48:16;;;;;;;7.70;1.60;;;;;;;16.46;44.50;99940.31;79411;1300;3013797;-65
2023/10/12 12:50:47;;;;;;;4.80;2.00;;;;;;;16.54;44.27;99933.17;79506;1295;3011657;-62
2023/10/12 12:53:19;;;;;;;14.90;3.20;;;;;;;16.62;44.48;99925.96;78246;1300;3050989;-64
2023/10/12 12:55:46;;;;;;;6.80;2.10;;;;;;;16.80;43.84;99919.94;79426;1295;3011473;-67
2023/10/12 12:58:15;;;;;;;11.20;4.40;;;;;;;16.81;43.84;99919.89;78593;1294;3027449;-65
2023/10/12 13:00:42;;;;;;;14.20;3.20;;;;;;;16.89;43.72;99916.95;80006;1291;3013467;-65
2023/10/12 13:03:09;;;;;;;5.70;1.90;;;;;;;16.85;43.91;99902.58;79859;1289;3011735;-64
2023/10/12 13:05:37;;;;;;;12.70;2.00;;;;;;;16.97;43.72;99897.76;78746;1289;3053322;-66
2023/10/12 13:08:07;;;;;;;11.80;2.00;;;;;;;16.85;44.15;99910.22;79803;1292;3013228;-67
2023/10/12 13:10:35;;;;;;;6.20;2.20;;;;;;;16.83;44.33;99892.44;76532;1289;6287952;-64
2023/10/12 13:13:02;;;;;;;5.90;2.60;;;;;;;16.81;44.87;99877.58;79831;1289;3012947;-61
2023/10/12 13:15:31;;;;;;;20.60;5.50;;;;;;;16.84;44.91;99877.33;79947;1291;3012040;-65
2023/10/12 13:17:59;;;;;;;26.90;7.30;;;;;;;16.88;44.50;99868.36;78599;1292;3050365;-64
2023/10/12 13:20:29;;;;;;;36.00;8.40;;;;;;;16.91;44.61;99869.22;79915;1293;3015913;-65
2023/10/12 13:22:57;;;;;;;37.10;10.90;;;;;;;16.74;44.79;99865.02;78660;1292;3068023;-67
2023/10/12 13:25:26;;;;;;;28.30;7.50;;;;;;;16.85;44.55;99867.02;80008;1292;3018877;-65
2023/10/12 13:27:53;;;;;;;12.60;4.00;;;;;;;17.01;44.60;99854.58;79905;1289;3012119;-63
2023/10/12 13:30:21;;;;;;;28.20;6.40;;;;;;;17.08;44.44;99857.36;78912;1291;3054538;-60
2023/10/12 13:32:48;;;;;;;32.30;7.10;;;;;;;17.05;44.35;99860.86;79903;1292;3012960;-67
2023/10/12 13:35:18;;;;;;;26.10;5.60;;;;;;;17.30;44.50;99859.35;79809;1292;3011607;-61
2023/10/12 13:37:45;;;;;;;25.60;6.70;;;;;;;17.22;44.47;99862.61;78751;1292;3068062;-71
2023/10/12 13:40:15;;;;;;;22.70;6.20;;;;;;;17.25;44.54;99863.48;79887;1290;3014491;-70
2023/10/12 13:42:44;;;;;;;13.30;4.50;;;;;;;17.21;44.64;99871.19;79382;1289;3011924;-66
2023/10/12 13:45:12;;;;;;;20.30;5.60;;;;;;;16.99;45.03;99882.38;79944;1288;3013283;-64
2023/10/12 13:47:42;;;;;;;9.50;3.10;;;;;;;16.94;45.34;99893.36;80062;1294;3012996;-68
2023/10/12 13:50:10;;;;;;;7.80;3.40;;;;;;;16.92;45.25;99878.84;78600;1292;3051977;-64
2023/10/12 13:52:38;;;;;;;7.50;3.70;;;;;;;16.87;45.47;99889.30;80079;1291;3013056;-67
2023/10/12 13:55:11;;;;;;;10.70;3.20;;;;;;;16.81;45.77;99887.14;79996;1289;3011558;-68
2023/10/12 13:57:50;;;;;;;11.20;3.70;;;;;;;16.87;45.67;99886.65;78763;1290;3056762;-66
2023/10/12 14:00:22;;;;;;;10.40;3.90;;;;;;;16.71;46.19;99880.68;78660;1289;3049408;-65
2023/10/12 14:02:54;;;;;;;9.60;2.70;;;;;;;16.80;46.19;99877.15;79807;1291;3011863;-66